sensor_id;sensor_type;location;lat;lon;timestamp;pressure;altitude;pressure_sealevel;temperature;humidity
11415;BME280;5763;42.714;23.244;2023-04-05T00:01:34;94086.97;;;2.45;77.27
11415;BME280;5763;42.714;23.244;2023-04-05T00:04:03;94078.81;;;2.48;76.80
11415;BME280;5763;42.714;23.244;2023-04-05T00:06:30;94086.16;;;2.48;76.81
11415;BME280;5763;42.714;23.244;2023-04-05T00:08:59;94084.31;;;2.64;76.18
11415;BME280;5763;42.714;23.244;2023-04-05T00:11:27;94085.47;;;2.63;75.75
11415;BME280;5763;42.714;23.244;2023-04-05T00:13:55;94084.44;;;2.57;75.88
11415;BME280;5763;42.714;23.244;2023-04-05T00:16:22;94085.19;;;2.58;75.83
11415;BME280;5763;42.714;23.244;2023-04-05T00:18:48;94078.69;;;2.55;75.69
11415;BME280;5763;42.714;23.244;2023-04-05T00:21:16;94087.97;;;2.54;75.39
11415;BME280;5763;42.714;23.244;2023-04-05T00:23:46;94075.16;;;2.58;75.63
11415;BME280;5763;42.714;23.244;2023-04-05T00:26:14;94084.94;;;2.72;75.55
11415;BME280;5763;42.714;23.244;2023-04-05T00:28:41;94090.28;;;2.75;74.83
11415;BME280;5763;42.714;23.244;2023-04-05T00:31:08;94084.09;;;2.75;74.70
11415;BME280;5763;42.714;23.244;2023-04-05T00:33:34;94078.59;;;2.82;74.56
11415;BME280;5763;42.714;23.244;2023-04-05T00:36:08;94093.06;;;2.91;74.71
11415;BME280;5763;42.714;23.244;2023-04-05T00:38:35;94085.78;;;2.88;74.55
11415;BME280;5763;42.714;23.244;2023-04-05T00:41:02;94092.09;;;2.82;74.64
11415;BME280;5763;42.714;23.244;2023-04-05T00:43:30;94081.69;;;2.80;74.12
11415;BME280;5763;42.714;23.244;2023-04-05T00:45:57;94086.25;;;2.83;74.19
11415;BME280;5763;42.714;23.244;2023-04-05T00:48:24;94093.19;;;2.84;74.31
11415;BME280;5763;42.714;23.244;2023-04-05T00:50:51;94086.94;;;2.87;73.75
11415;BME280;5763;42.714;23.244;2023-04-05T00:53:18;94089.41;;;2.82;74.03
11415;BME280;5763;42.714;23.244;2023-04-05T00:55:46;94085.63;;;2.76;74.27
11415;BME280;5763;42.714;23.244;2023-04-05T00:58:14;94089.31;;;2.85;74.15
11415;BME280;5763;42.714;23.244;2023-04-05T01:00:49;94084.81;;;2.79;73.31
11415;BME280;5763;42.714;23.244;2023-04-05T01:03:18;94096.94;;;2.90;73.03
11415;BME280;5763;42.714;23.244;2023-04-05T01:05:54;94088.13;;;2.86;72.45
11415;BME280;5763;42.714;23.244;2023-04-05T01:08:28;94084.41;;;2.80;72.62
11415;BME280;5763;42.714;23.244;2023-04-05T01:11:01;94095.47;;;2.86;72.63
11415;BME280;5763;42.714;23.244;2023-04-05T01:13:29;94106.81;;;2.77;72.28
11415;BME280;5763;42.714;23.244;2023-04-05T01:15:57;94107.66;;;2.74;72.73
11415;BME280;5763;42.714;23.244;2023-04-05T01:18:24;94096.28;;;2.63;73.14
11415;BME280;5763;42.714;23.244;2023-04-05T01:20:58;94095.78;;;2.68;73.26
11415;BME280;5763;42.714;23.244;2023-04-05T01:23:37;94095.13;;;2.64;73.06
11415;BME280;5763;42.714;23.244;2023-04-05T01:26:45;94119.06;;;2.62;73.46
11415;BME280;5763;42.714;23.244;2023-04-05T01:29:44;94104.50;;;2.56;73.43
11415;BME280;5763;42.714;23.244;2023-04-05T01:32:19;94099.66;;;2.48;73.37
11415;BME280;5763;42.714;23.244;2023-04-05T01:34:51;94119.19;;;2.55;73.69
11415;BME280;5763;42.714;23.244;2023-04-05T01:37:22;94115.38;;;2.53;73.78
11415;BME280;5763;42.714;23.244;2023-04-05T01:39:51;94103.69;;;2.59;73.53
11415;BME280;5763;42.714;23.244;2023-04-05T01:42:22;94088.25;;;2.60;73.18
11415;BME280;5763;42.714;23.244;2023-04-05T01:44:51;94103.91;;;2.68;72.89
11415;BME280;5763;42.714;23.244;2023-04-05T01:47:18;94114.56;;;2.56;73.27
11415;BME280;5763;42.714;23.244;2023-04-05T01:49:45;94120.53;;;2.67;73.00
11415;BME280;5763;42.714;23.244;2023-04-05T01:52:12;94104.50;;;2.56;72.39
11415;BME280;5763;42.714;23.244;2023-04-05T01:54:38;94112.69;;;2.53;72.84
11415;BME280;5763;42.714;23.244;2023-04-05T01:57:05;94119.91;;;2.59;73.22
11415;BME280;5763;42.714;23.244;2023-04-05T01:59:32;94111.97;;;2.49;73.62
11415;BME280;5763;42.714;23.244;2023-04-05T02:02:00;94110.69;;;2.57;73.43
11415;BME280;5763;42.714;23.244;2023-04-05T02:04:27;94111.56;;;2.50;73.18
11415;BME280;5763;42.714;23.244;2023-04-05T02:06:54;94112.09;;;2.42;73.68
11415;BME280;5763;42.714;23.244;2023-04-05T02:09:20;94127.81;;;2.47;73.96
11415;BME280;5763;42.714;23.244;2023-04-05T02:11:47;94114.72;;;2.45;73.77
11415;BME280;5763;42.714;23.244;2023-04-05T02:14:14;94123.94;;;2.48;73.54
11415;BME280;5763;42.714;23.244;2023-04-05T02:16:40;94108.09;;;2.50;73.29
11415;BME280;5763;42.714;23.244;2023-04-05T02:19:09;94124.66;;;2.52;73.72
11415;BME280;5763;42.714;23.244;2023-04-05T02:21:37;94116.91;;;2.54;73.72
11415;BME280;5763;42.714;23.244;2023-04-05T02:24:05;94121.13;;;2.55;73.21
11415;BME280;5763;42.714;23.244;2023-04-05T02:26:32;94119.31;;;2.48;73.76
11415;BME280;5763;42.714;23.244;2023-04-05T02:28:59;94124.19;;;2.57;73.93
11415;BME280;5763;42.714;23.244;2023-04-05T02:31:25;94131.91;;;2.55;73.81
11415;BME280;5763;42.714;23.244;2023-04-05T02:33:52;94105.75;;;2.52;74.31
11415;BME280;5763;42.714;23.244;2023-04-05T02:36:21;94125.41;;;2.52;74.17
11415;BME280;5763;42.714;23.244;2023-04-05T02:38:48;94114.13;;;2.57;73.64
11415;BME280;5763;42.714;23.244;2023-04-05T02:41:15;94114.66;;;2.49;73.89
11415;BME280;5763;42.714;23.244;2023-04-05T02:43:42;94104.66;;;2.49;73.99
11415;BME280;5763;42.714;23.244;2023-04-05T02:46:09;94114.50;;;2.59;74.25
11415;BME280;5763;42.714;23.244;2023-04-05T02:48:35;94124.47;;;2.62;73.99
11415;BME280;5763;42.714;23.244;2023-04-05T02:51:02;94111.44;;;2.57;74.18
11415;BME280;5763;42.714;23.244;2023-04-05T02:53:31;94118.16;;;2.69;73.61
11415;BME280;5763;42.714;23.244;2023-04-05T02:55:57;94117.63;;;2.77;73.65
11415;BME280;5763;42.714;23.244;2023-04-05T02:58:25;94114.59;;;2.75;73.58
11415;BME280;5763;42.714;23.244;2023-04-05T03:00:52;94105.78;;;2.71;73.76
11415;BME280;5763;42.714;23.244;2023-04-05T03:03:21;94111.75;;;2.82;73.29
11415;BME280;5763;42.714;23.244;2023-04-05T03:05:56;94111.88;;;2.75;73.47
11415;BME280;5763;42.714;23.244;2023-04-05T03:08:24;94108.81;;;2.73;73.72
11415;BME280;5763;42.714;23.244;2023-04-05T03:10:53;94111.66;;;2.66;73.75
11415;BME280;5763;42.714;23.244;2023-04-05T03:13:20;94102.78;;;2.66;74.04
11415;BME280;5763;42.714;23.244;2023-04-05T03:15:46;94109.66;;;2.70;73.92
11415;BME280;5763;42.714;23.244;2023-04-05T03:18:14;94107.59;;;2.78;74.04
11415;BME280;5763;42.714;23.244;2023-04-05T03:20:41;94114.22;;;2.73;73.82
11415;BME280;5763;42.714;23.244;2023-04-05T03:23:10;94110.28;;;2.78;73.56
11415;BME280;5763;42.714;23.244;2023-04-05T03:25:36;94104.25;;;2.70;73.91
11415;BME280;5763;42.714;23.244;2023-04-05T03:28:06;94113.88;;;2.71;73.75
11415;BME280;5763;42.714;23.244;2023-04-05T03:30:34;94109.25;;;2.72;74.04
11415;BME280;5763;42.714;23.244;2023-04-05T03:33:01;94112.47;;;2.63;74.31
11415;BME280;5763;42.714;23.244;2023-04-05T03:35:29;94111.31;;;2.64;74.27
11415;BME280;5763;42.714;23.244;2023-04-05T03:37:56;94116.66;;;2.68;74.38
11415;BME280;5763;42.714;23.244;2023-04-05T03:40:23;94109.72;;;2.67;74.29
11415;BME280;5763;42.714;23.244;2023-04-05T03:42:49;94101.34;;;2.61;74.19
11415;BME280;5763;42.714;23.244;2023-04-05T03:45:18;94105.28;;;2.57;74.04
11415;BME280;5763;42.714;23.244;2023-04-05T03:47:45;94111.88;;;2.56;74.02
11415;BME280;5763;42.714;23.244;2023-04-05T03:50:12;94115.94;;;2.64;74.17
11415;BME280;5763;42.714;23.244;2023-04-05T03:52:38;94125.16;;;2.66;73.99
11415;BME280;5763;42.714;23.244;2023-04-05T03:55:06;94120.09;;;2.68;73.81
11415;BME280;5763;42.714;23.244;2023-04-05T03:57:32;94132.72;;;2.75;73.73
11415;BME280;5763;42.714;23.244;2023-04-05T04:00:00;94133.66;;;2.65;74.11
11415;BME280;5763;42.714;23.244;2023-04-05T04:02:41;94127.03;;;2.69;74.29
11415;BME280;5763;42.714;23.244;2023-04-05T04:05:08;94129.63;;;2.76;73.49
11415;BME280;5763;42.714;23.244;2023-04-05T04:07:35;94137.56;;;2.83;73.57
11415;BME280;5763;42.714;23.244;2023-04-05T04:10:02;94134.94;;;2.80;73.34
11415;BME280;5763;42.714;23.244;2023-04-05T04:12:29;94135.66;;;2.84;73.52
11415;BME280;5763;42.714;23.244;2023-04-05T04:14:56;94130.88;;;2.91;73.67
11415;BME280;5763;42.714;23.244;2023-04-05T04:17:26;94136.13;;;2.98;73.34
11415;BME280;5763;42.714;23.244;2023-04-05T04:19:55;94134.91;;;3.03;73.60
11415;BME280;5763;42.714;23.244;2023-04-05T04:22:22;94148.22;;;3.13;73.19
11415;BME280;5763;42.714;23.244;2023-04-05T04:24:51;94142.47;;;3.11;72.74
11415;BME280;5763;42.714;23.244;2023-04-05T04:27:18;94141.47;;;3.02;73.17
11415;BME280;5763;42.714;23.244;2023-04-05T04:29:45;94132.22;;;3.03;73.54
11415;BME280;5763;42.714;23.244;2023-04-05T04:32:13;94133.91;;;2.93;73.73
11415;BME280;5763;42.714;23.244;2023-04-05T04:34:40;94141.34;;;2.89;73.80
11415;BME280;5763;42.714;23.244;2023-04-05T04:37:12;94144.06;;;2.89;73.44
11415;BME280;5763;42.714;23.244;2023-04-05T04:39:43;94152.28;;;3.02;73.03
11415;BME280;5763;42.714;23.244;2023-04-05T04:42:11;94141.69;;;2.91;72.68
11415;BME280;5763;42.714;23.244;2023-04-05T04:44:40;94148.97;;;2.94;72.42
11415;BME280;5763;42.714;23.244;2023-04-05T04:47:07;94155.19;;;2.91;72.26
11415;BME280;5763;42.714;23.244;2023-04-05T04:49:37;94141.47;;;2.82;72.54
11415;BME280;5763;42.714;23.244;2023-04-05T04:52:04;94155.53;;;2.93;72.15
11415;BME280;5763;42.714;23.244;2023-04-05T04:54:35;94152.91;;;2.90;72.08
11415;BME280;5763;42.714;23.244;2023-04-05T04:57:02;94155.97;;;2.92;72.44
11415;BME280;5763;42.714;23.244;2023-04-05T04:59:28;94160.75;;;2.84;72.55
11415;BME280;5763;42.714;23.244;2023-04-05T05:01:55;94154.84;;;2.89;72.46
11415;BME280;5763;42.714;23.244;2023-04-05T05:04:22;94148.13;;;2.78;72.80
11415;BME280;5763;42.714;23.244;2023-04-05T05:06:49;94150.59;;;2.69;72.79
11415;BME280;5763;42.714;23.244;2023-04-05T05:09:17;94137.63;;;2.60;73.01
11415;BME280;5763;42.714;23.244;2023-04-05T05:11:45;94141.50;;;2.59;73.44
11415;BME280;5763;42.714;23.244;2023-04-05T05:14:12;94147.72;;;2.56;74.34
11415;BME280;5763;42.714;23.244;2023-04-05T05:16:39;94145.78;;;2.57;74.22
11415;BME280;5763;42.714;23.244;2023-04-05T05:19:06;94152.31;;;2.59;73.62
11415;BME280;5763;42.714;23.244;2023-04-05T05:21:32;94161.06;;;2.63;73.56
11415;BME280;5763;42.714;23.244;2023-04-05T05:23:59;94160.84;;;2.77;73.61
11415;BME280;5763;42.714;23.244;2023-04-05T05:26:26;94161.25;;;2.76;71.85
11415;BME280;5763;42.714;23.244;2023-04-05T05:28:54;94160.59;;;2.68;72.46
11415;BME280;5763;42.714;23.244;2023-04-05T05:31:20;94177.00;;;2.58;72.66
11415;BME280;5763;42.714;23.244;2023-04-05T05:33:47;94166.38;;;2.70;72.13
11415;BME280;5763;42.714;23.244;2023-04-05T05:36:15;94166.19;;;2.81;71.56
11415;BME280;5763;42.714;23.244;2023-04-05T05:38:44;94165.66;;;2.89;71.50
11415;BME280;5763;42.714;23.244;2023-04-05T05:41:10;94158.47;;;3.02;70.82
11415;BME280;5763;42.714;23.244;2023-04-05T05:43:37;94169.09;;;3.13;70.56
11415;BME280;5763;42.714;23.244;2023-04-05T05:46:05;94164.78;;;3.15;70.21
11415;BME280;5763;42.714;23.244;2023-04-05T05:48:32;94172.81;;;3.19;69.75
11415;BME280;5763;42.714;23.244;2023-04-05T05:50:58;94157.44;;;3.16;69.44
11415;BME280;5763;42.714;23.244;2023-04-05T05:53:33;94171.84;;;3.29;68.78
11415;BME280;5763;42.714;23.244;2023-04-05T05:56:00;94166.66;;;3.38;68.84
11415;BME280;5763;42.714;23.244;2023-04-05T05:58:27;94158.47;;;3.41;68.69
11415;BME280;5763;42.714;23.244;2023-04-05T06:00:54;94167.47;;;3.54;67.98
11415;BME280;5763;42.714;23.244;2023-04-05T06:03:23;94170.88;;;3.58;66.92
11415;BME280;5763;42.714;23.244;2023-04-05T06:05:51;94160.38;;;3.60;67.30
11415;BME280;5763;42.714;23.244;2023-04-05T06:08:17;94169.06;;;3.52;66.95
11415;BME280;5763;42.714;23.244;2023-04-05T06:10:44;94169.09;;;3.32;66.86
11415;BME280;5763;42.714;23.244;2023-04-05T06:13:11;94172.41;;;3.40;67.87
11415;BME280;5763;42.714;23.244;2023-04-05T06:15:38;94165.00;;;3.44;67.63
11415;BME280;5763;42.714;23.244;2023-04-05T06:18:04;94176.56;;;3.44;67.00
11415;BME280;5763;42.714;23.244;2023-04-05T06:20:32;94171.22;;;3.41;66.92
11415;BME280;5763;42.714;23.244;2023-04-05T06:23:00;94188.63;;;3.40;66.79
11415;BME280;5763;42.714;23.244;2023-04-05T06:25:27;94186.91;;;3.30;66.87
11415;BME280;5763;42.714;23.244;2023-04-05T06:27:54;94180.38;;;3.27;66.88
11415;BME280;5763;42.714;23.244;2023-04-05T06:30:20;94186.19;;;3.45;67.19
11415;BME280;5763;42.714;23.244;2023-04-05T06:32:47;94183.28;;;3.56;67.77
11415;BME280;5763;42.714;23.244;2023-04-05T06:35:18;94182.03;;;3.60;67.66
11415;BME280;5763;42.714;23.244;2023-04-05T06:37:47;94184.72;;;3.80;67.05
11415;BME280;5763;42.714;23.244;2023-04-05T06:40:14;94201.50;;;3.91;65.91
11415;BME280;5763;42.714;23.244;2023-04-05T06:42:41;94190.88;;;3.80;64.87
11415;BME280;5763;42.714;23.244;2023-04-05T06:45:09;94186.41;;;3.74;65.45
11415;BME280;5763;42.714;23.244;2023-04-05T06:47:37;94195.56;;;3.80;65.07
11415;BME280;5763;42.714;23.244;2023-04-05T06:50:06;94205.38;;;3.90;65.00
11415;BME280;5763;42.714;23.244;2023-04-05T06:52:33;94227.66;;;3.97;64.37
11415;BME280;5763;42.714;23.244;2023-04-05T06:55:01;94181.91;;;3.67;63.62
11415;BME280;5763;42.714;23.244;2023-04-05T06:57:29;94207.59;;;3.75;63.98
11415;BME280;5763;42.714;23.244;2023-04-05T06:59:56;94216.25;;;3.86;64.18
11415;BME280;5763;42.714;23.244;2023-04-05T07:02:23;94213.47;;;4.09;64.19
11415;BME280;5763;42.714;23.244;2023-04-05T07:04:50;94220.19;;;4.01;63.69
11415;BME280;5763;42.714;23.244;2023-04-05T07:07:17;94229.66;;;3.93;63.57
11415;BME280;5763;42.714;23.244;2023-04-05T07:09:44;94230.69;;;3.99;64.03
11415;BME280;5763;42.714;23.244;2023-04-05T07:12:12;94233.56;;;3.92;64.45
11415;BME280;5763;42.714;23.244;2023-04-05T07:14:39;94230.16;;;3.88;64.45
11415;BME280;5763;42.714;23.244;2023-04-05T07:17:06;94227.66;;;3.97;64.96
11415;BME280;5763;42.714;23.244;2023-04-05T07:19:32;94228.28;;;3.85;64.43
11415;BME280;5763;42.714;23.244;2023-04-05T07:22:00;94235.56;;;3.88;64.76
11415;BME280;5763;42.714;23.244;2023-04-05T07:24:26;94243.75;;;4.04;64.40
11415;BME280;5763;42.714;23.244;2023-04-05T07:26:53;94243.53;;;4.15;63.88
11415;BME280;5763;42.714;23.244;2023-04-05T07:29:22;94236.38;;;4.05;63.28
11415;BME280;5763;42.714;23.244;2023-04-05T07:31:49;94241.72;;;4.08;62.53
11415;BME280;5763;42.714;23.244;2023-04-05T07:34:16;94248.13;;;3.98;62.98
11415;BME280;5763;42.714;23.244;2023-04-05T07:36:42;94223.16;;;3.91;62.38
11415;BME280;5763;42.714;23.244;2023-04-05T07:39:11;94256.25;;;3.98;62.46
11415;BME280;5763;42.714;23.244;2023-04-05T07:41:37;94241.44;;;4.03;62.96
11415;BME280;5763;42.714;23.244;2023-04-05T07:44:04;94251.03;;;4.07;62.48
11415;BME280;5763;42.714;23.244;2023-04-05T07:46:33;94253.03;;;4.03;62.11
11415;BME280;5763;42.714;23.244;2023-04-05T07:49:00;94245.94;;;4.09;62.64
11415;BME280;5763;42.714;23.244;2023-04-05T07:51:27;94251.16;;;4.20;62.92
11415;BME280;5763;42.714;23.244;2023-04-05T07:53:53;94248.44;;;4.20;63.02
11415;BME280;5763;42.714;23.244;2023-04-05T07:56:20;94270.22;;;4.13;62.81
11415;BME280;5763;42.714;23.244;2023-04-05T07:58:47;94269.38;;;4.00;62.99
11415;BME280;5763;42.714;23.244;2023-04-05T08:01:15;94262.97;;;3.90;63.32
11415;BME280;5763;42.714;23.244;2023-04-05T08:03:44;94289.94;;;3.94;63.11
11415;BME280;5763;42.714;23.244;2023-04-05T08:06:11;94281.16;;;3.90;63.64
11415;BME280;5763;42.714;23.244;2023-04-05T08:08:39;94283.06;;;4.09;63.21
11415;BME280;5763;42.714;23.244;2023-04-05T08:11:06;94274.69;;;4.03;63.15
11415;BME280;5763;42.714;23.244;2023-04-05T08:13:33;94283.06;;;4.09;62.55
11415;BME280;5763;42.714;23.244;2023-04-05T08:16:01;94272.81;;;4.00;62.93
11415;BME280;5763;42.714;23.244;2023-04-05T08:18:27;94270.25;;;3.93;62.79
11415;BME280;5763;42.714;23.244;2023-04-05T08:20:56;94279.34;;;3.83;63.48
11415;BME280;5763;42.714;23.244;2023-04-05T08:23:23;94288.78;;;3.95;64.08
11415;BME280;5763;42.714;23.244;2023-04-05T08:25:51;94289.22;;;3.93;63.80
11415;BME280;5763;42.714;23.244;2023-04-05T08:28:18;94281.97;;;3.87;64.09
11415;BME280;5763;42.714;23.244;2023-04-05T08:30:45;94287.88;;;4.01;64.24
11415;BME280;5763;42.714;23.244;2023-04-05T08:33:12;94280.84;;;4.04;63.55
11415;BME280;5763;42.714;23.244;2023-04-05T08:35:39;94284.97;;;4.12;63.90
11415;BME280;5763;42.714;23.244;2023-04-05T08:38:08;94299.06;;;4.03;63.38
11415;BME280;5763;42.714;23.244;2023-04-05T08:40:39;94290.44;;;4.08;63.24
11415;BME280;5763;42.714;23.244;2023-04-05T08:43:10;94296.91;;;4.14;63.78
11415;BME280;5763;42.714;23.244;2023-04-05T08:45:45;94300.88;;;4.10;64.05
11415;BME280;5763;42.714;23.244;2023-04-05T08:48:13;94293.38;;;4.17;64.08
11415;BME280;5763;42.714;23.244;2023-04-05T08:50:40;94294.31;;;4.27;64.47
11415;BME280;5763;42.714;23.244;2023-04-05T08:53:08;94302.34;;;4.30;64.11
11415;BME280;5763;42.714;23.244;2023-04-05T08:55:36;94302.09;;;4.25;64.00
11415;BME280;5763;42.714;23.244;2023-04-05T08:58:08;94302.84;;;4.25;64.37
11415;BME280;5763;42.714;23.244;2023-04-05T09:00:36;94311.69;;;4.10;63.68
11415;BME280;5763;42.714;23.244;2023-04-05T09:03:04;94304.38;;;4.26;64.39
11415;BME280;5763;42.714;23.244;2023-04-05T09:05:32;94301.94;;;4.32;63.84
11415;BME280;5763;42.714;23.244;2023-04-05T09:08:02;94310.41;;;4.34;63.52
11415;BME280;5763;42.714;23.244;2023-04-05T09:10:31;94318.44;;;4.37;65.08
11415;BME280;5763;42.714;23.244;2023-04-05T09:12:59;94327.59;;;4.63;64.12
11415;BME280;5763;42.714;23.244;2023-04-05T09:15:27;94321.66;;;4.68;63.77
11415;BME280;5763;42.714;23.244;2023-04-05T09:17:55;94300.00;;;4.68;63.83
11415;BME280;5763;42.714;23.244;2023-04-05T09:20:22;94319.75;;;4.84;63.96
11415;BME280;5763;42.714;23.244;2023-04-05T09:22:49;94315.34;;;4.90;63.89
11415;BME280;5763;42.714;23.244;2023-04-05T09:25:34;94320.59;;;4.97;62.66
11415;BME280;5763;42.714;23.244;2023-04-05T09:28:03;94316.53;;;4.89;62.73
11415;BME280;5763;42.714;23.244;2023-04-05T09:30:31;94317.69;;;4.88;62.28
11415;BME280;5763;42.714;23.244;2023-04-05T09:32:59;94305.09;;;4.98;62.35
11415;BME280;5763;42.714;23.244;2023-04-05T09:35:27;94312.81;;;4.99;61.59
11415;BME280;5763;42.714;23.244;2023-04-05T09:37:54;94308.22;;;4.96;61.99
11415;BME280;5763;42.714;23.244;2023-04-05T09:40:22;94311.44;;;4.91;61.97
11415;BME280;5763;42.714;23.244;2023-04-05T09:42:50;94321.19;;;5.05;62.51
11415;BME280;5763;42.714;23.244;2023-04-05T09:45:18;94304.25;;;5.01;61.42
11415;BME280;5763;42.714;23.244;2023-04-05T09:47:53;94315.03;;;5.04;60.07
11415;BME280;5763;42.714;23.244;2023-04-05T09:50:20;94308.91;;;5.00;58.97
11415;BME280;5763;42.714;23.244;2023-04-05T09:52:47;94325.50;;;5.02;60.26
11415;BME280;5763;42.714;23.244;2023-04-05T09:55:24;94314.06;;;4.95;60.26
11415;BME280;5763;42.714;23.244;2023-04-05T09:57:53;94336.34;;;5.02;59.48
11415;BME280;5763;42.714;23.244;2023-04-05T10:00:21;94321.00;;;4.80;58.59
11415;BME280;5763;42.714;23.244;2023-04-05T10:02:52;94319.16;;;4.77;58.82
11415;BME280;5763;42.714;23.244;2023-04-05T10:05:22;94326.59;;;4.89;58.57
11415;BME280;5763;42.714;23.244;2023-04-05T10:07:50;94320.41;;;4.88;59.22
11415;BME280;5763;42.714;23.244;2023-04-05T10:10:17;94317.88;;;4.81;57.57
11415;BME280;5763;42.714;23.244;2023-04-05T10:12:44;94313.97;;;4.82;58.59
11415;BME280;5763;42.714;23.244;2023-04-05T10:15:15;94324.22;;;4.91;57.93
11415;BME280;5763;42.714;23.244;2023-04-05T10:17:47;94317.06;;;5.00;57.39
11415;BME280;5763;42.714;23.244;2023-04-05T10:20:17;94336.03;;;5.16;55.50
11415;BME280;5763;42.714;23.244;2023-04-05T10:22:56;94330.59;;;5.00;55.62
11415;BME280;5763;42.714;23.244;2023-04-05T10:25:30;94322.59;;;4.77;55.98
11415;BME280;5763;42.714;23.244;2023-04-05T10:28:03;94327.72;;;4.91;56.44
11415;BME280;5763;42.714;23.244;2023-04-05T10:30:33;94319.91;;;4.93;56.76
11415;BME280;5763;42.714;23.244;2023-04-05T10:33:09;94319.25;;;5.21;56.84
11415;BME280;5763;42.714;23.244;2023-04-05T10:35:45;94323.47;;;5.38;55.55
11415;BME280;5763;42.714;23.244;2023-04-05T10:38:20;94329.94;;;5.73;56.30
11415;BME280;5763;42.714;23.244;2023-04-05T10:40:53;94313.56;;;5.92;55.69
11415;BME280;5763;42.714;23.244;2023-04-05T10:43:24;94323.34;;;5.90;54.14
11415;BME280;5763;42.714;23.244;2023-04-05T10:45:53;94329.00;;;5.79;53.42
11415;BME280;5763;42.714;23.244;2023-04-05T10:48:39;94280.53;;;5.81;53.49
11415;BME280;5763;42.714;23.244;2023-04-05T10:51:11;94327.63;;;6.03;53.85
11415;BME280;5763;42.714;23.244;2023-04-05T10:53:39;94321.47;;;6.15;54.10
11415;BME280;5763;42.714;23.244;2023-04-05T10:56:07;94324.59;;;6.14;53.89
11415;BME280;5763;42.714;23.244;2023-04-05T10:58:34;94340.16;;;6.13;53.18
11415;BME280;5763;42.714;23.244;2023-04-05T11:01:04;94323.28;;;6.06;52.90
11415;BME280;5763;42.714;23.244;2023-04-05T11:03:41;94334.38;;;6.11;53.95
11415;BME280;5763;42.714;23.244;2023-04-05T11:06:21;94329.75;;;6.24;54.06
11415;BME280;5763;42.714;23.244;2023-04-05T11:08:49;94332.09;;;6.51;52.77
11415;BME280;5763;42.714;23.244;2023-04-05T11:11:17;94333.31;;;6.62;51.70
11415;BME280;5763;42.714;23.244;2023-04-05T11:13:49;94338.78;;;6.87;51.29
11415;BME280;5763;42.714;23.244;2023-04-05T11:16:18;94334.97;;;6.97;52.44
11415;BME280;5763;42.714;23.244;2023-04-05T11:18:45;94327.59;;;7.10;50.99
11415;BME280;5763;42.714;23.244;2023-04-05T11:21:20;94329.97;;;7.08;49.86
11415;BME280;5763;42.714;23.244;2023-04-05T11:24:05;94339.31;;;7.07;50.74
11415;BME280;5763;42.714;23.244;2023-04-05T11:26:51;94323.78;;;6.95;52.34
11415;BME280;5763;42.714;23.244;2023-04-05T11:29:45;94351.50;;;7.40;51.43
11415;BME280;5763;42.714;23.244;2023-04-05T11:32:15;94331.69;;;7.40;48.75
11415;BME280;5763;42.714;23.244;2023-04-05T11:34:43;94318.50;;;7.38;51.11
11415;BME280;5763;42.714;23.244;2023-04-05T11:37:10;94322.03;;;7.26;50.19
11415;BME280;5763;42.714;23.244;2023-04-05T11:39:37;94322.53;;;7.46;49.60
11415;BME280;5763;42.714;23.244;2023-04-05T11:42:09;94326.00;;;7.47;49.32
11415;BME280;5763;42.714;23.244;2023-04-05T11:44:44;94330.84;;;7.30;49.50
11415;BME280;5763;42.714;23.244;2023-04-05T11:47:12;94338.59;;;7.19;51.24
11415;BME280;5763;42.714;23.244;2023-04-05T11:49:48;94330.75;;;6.96;51.07
11415;BME280;5763;42.714;23.244;2023-04-05T11:52:16;94312.47;;;6.84;51.88
11415;BME280;5763;42.714;23.244;2023-04-05T11:54:44;94324.50;;;6.83;52.05
11415;BME280;5763;42.714;23.244;2023-04-05T11:57:12;94335.28;;;6.74;53.23
11415;BME280;5763;42.714;23.244;2023-04-05T11:59:41;94323.53;;;6.65;53.67
11415;BME280;5763;42.714;23.244;2023-04-05T12:02:07;94333.91;;;6.41;53.74
11415;BME280;5763;42.714;23.244;2023-04-05T12:04:35;94336.53;;;6.32;54.80
11415;BME280;5763;42.714;23.244;2023-04-05T12:07:14;94331.75;;;6.08;53.94
11415;BME280;5763;42.714;23.244;2023-04-05T12:09:58;94325.34;;;6.02;55.71
11415;BME280;5763;42.714;23.244;2023-04-05T12:12:25;94329.28;;;5.85;55.95
11415;BME280;5763;42.714;23.244;2023-04-05T12:14:57;94339.38;;;5.84;56.62
11415;BME280;5763;42.714;23.244;2023-04-05T12:17:37;94324.59;;;5.85;57.44
11415;BME280;5763;42.714;23.244;2023-04-05T12:20:05;94321.22;;;5.65;57.79
11415;BME280;5763;42.714;23.244;2023-04-05T12:22:33;94337.38;;;5.56;58.22
11415;BME280;5763;42.714;23.244;2023-04-05T12:25:01;94313.78;;;5.53;57.94
11415;BME280;5763;42.714;23.244;2023-04-05T12:27:28;94330.97;;;5.63;58.47
11415;BME280;5763;42.714;23.244;2023-04-05T12:30:10;94324.47;;;5.60;57.87
11415;BME280;5763;42.714;23.244;2023-04-05T12:32:46;94321.19;;;5.53;58.56
11415;BME280;5763;42.714;23.244;2023-04-05T12:35:18;94323.91;;;5.53;58.99
11415;BME280;5763;42.714;23.244;2023-04-05T12:37:47;94322.03;;;5.50;59.71
11415;BME280;5763;42.714;23.244;2023-04-05T12:40:19;94322.25;;;5.55;59.49
11415;BME280;5763;42.714;23.244;2023-04-05T12:42:47;94321.25;;;5.49;58.47
11415;BME280;5763;42.714;23.244;2023-04-05T12:45:14;94329.66;;;5.55;58.77
11415;BME280;5763;42.714;23.244;2023-04-05T12:47:49;94328.72;;;5.61;58.02
11415;BME280;5763;42.714;23.244;2023-04-05T12:50:18;94334.13;;;5.77;57.75
11415;BME280;5763;42.714;23.244;2023-04-05T12:52:56;94334.97;;;5.74;56.11
11415;BME280;5763;42.714;23.244;2023-04-05T12:55:24;94320.53;;;5.77;54.71
11415;BME280;5763;42.714;23.244;2023-04-05T12:57:52;94322.41;;;5.80;54.15
11415;BME280;5763;42.714;23.244;2023-04-05T13:00:20;94324.53;;;5.89;54.57
11415;BME280;5763;42.714;23.244;2023-04-05T13:02:50;94325.28;;;5.89;54.66
11415;BME280;5763;42.714;23.244;2023-04-05T13:05:19;94324.25;;;5.99;54.34
11415;BME280;5763;42.714;23.244;2023-04-05T13:07:46;94337.50;;;5.97;53.11
11415;BME280;5763;42.714;23.244;2023-04-05T13:10:15;94339.22;;;6.04;53.93
11415;BME280;5763;42.714;23.244;2023-04-05T13:12:41;94333.19;;;6.12;53.14
11415;BME280;5763;42.714;23.244;2023-04-05T13:15:08;94328.53;;;6.13;53.85
11415;BME280;5763;42.714;23.244;2023-04-05T13:17:35;94339.09;;;6.23;54.31
11415;BME280;5763;42.714;23.244;2023-04-05T13:20:02;94348.13;;;6.33;53.81